sensor_id;sensor_type;location;lat;lon;timestamp;P1;durP1;ratioP1;P2;durP2;ratioP2
75772;SDS011;64381;0.000;0.000;2023-12-20T00:01:03;3.67;;;1.50;;
75772;SDS011;64381;0.000;0.000;2023-12-20T00:03:28;3.60;;;1.60;;
75772;SDS011;64381;0.000;0.000;2023-12-20T00:05:54;3.40;;;1.60;;
75772;SDS011;64381;0.000;0.000;2023-12-20T00:08:19;3.87;;;1.50;;
75772;SDS011;64381;0.000;0.000;2023-12-20T00:10:44;3.83;;;1.77;;
75772;SDS011;64381;0.000;0.000;2023-12-20T00:13:10;4.47;;;1.63;;
75772;SDS011;64381;0.000;0.000;2023-12-20T00:15:35;3.75;;;1.77;;
75772;SDS011;64381;0.000;0.000;2023-12-20T00:18:00;3.80;;;1.67;;
75772;SDS011;64381;0.000;0.000;2023-12-20T00:20:26;3.60;;;1.63;;
75772;SDS011;64381;0.000;0.000;2023-12-20T00:22:52;3.38;;;1.70;;
75772;SDS011;64381;0.000;0.000;2023-12-20T00:25:19;3.77;;;1.67;;
75772;SDS011;64381;0.000;0.000;2023-12-20T00:27:44;3.03;;;1.53;;
75772;SDS011;64381;0.000;0.000;2023-12-20T00:30:09;3.17;;;1.50;;
75772;SDS011;64381;0.000;0.000;2023-12-20T00:32:35;3.80;;;1.70;;
75772;SDS011;64381;0.000;0.000;2023-12-20T00:35:00;3.87;;;1.57;;
75772;SDS011;64381;0.000;0.000;2023-12-20T00:37:25;3.40;;;1.60;;
75772;SDS011;64381;0.000;0.000;2023-12-20T00:39:51;3.30;;;1.53;;
75772;SDS011;64381;0.000;0.000;2023-12-20T00:42:16;3.63;;;1.80;;
75772;SDS011;64381;0.000;0.000;2023-12-20T00:44:41;3.10;;;1.57;;
75772;SDS011;64381;0.000;0.000;2023-12-20T00:47:06;4.07;;;1.90;;
75772;SDS011;64381;0.000;0.000;2023-12-20T00:49:31;3.63;;;1.50;;
75772;SDS011;64381;0.000;0.000;2023-12-20T00:51:57;3.63;;;1.60;;
75772;SDS011;64381;0.000;0.000;2023-12-20T00:54:22;3.63;;;1.73;;
75772;SDS011;64381;0.000;0.000;2023-12-20T00:56:47;4.33;;;1.70;;
75772;SDS011;64381;0.000;0.000;2023-12-20T00:59:12;3.03;;;1.53;;
75772;SDS011;64381;0.000;0.000;2023-12-20T01:01:37;3.80;;;1.53;;
75772;SDS011;64381;0.000;0.000;2023-12-20T01:04:03;3.13;;;1.60;;
75772;SDS011;64381;0.000;0.000;2023-12-20T01:06:28;4.80;;;1.80;;
75772;SDS011;64381;0.000;0.000;2023-12-20T01:08:53;3.20;;;1.40;;
75772;SDS011;64381;0.000;0.000;2023-12-20T01:11:18;3.97;;;1.57;;
75772;SDS011;64381;0.000;0.000;2023-12-20T01:13:44;3.27;;;1.50;;
75772;SDS011;64381;0.000;0.000;2023-12-20T01:16:10;3.43;;;1.50;;
75772;SDS011;64381;0.000;0.000;2023-12-20T01:18:36;3.22;;;1.60;;
75772;SDS011;64381;0.000;0.000;2023-12-20T01:21:01;3.23;;;1.30;;
75772;SDS011;64381;0.000;0.000;2023-12-20T01:23:29;3.13;;;1.35;;
75772;SDS011;64381;0.000;0.000;2023-12-20T01:25:55;3.67;;;1.57;;
75772;SDS011;64381;0.000;0.000;2023-12-20T01:28:20;3.27;;;1.50;;
75772;SDS011;64381;0.000;0.000;2023-12-20T01:30:45;3.60;;;1.50;;
75772;SDS011;64381;0.000;0.000;2023-12-20T01:33:10;2.90;;;1.40;;
75772;SDS011;64381;0.000;0.000;2023-12-20T01:35:36;3.33;;;2.03;;
75772;SDS011;64381;0.000;0.000;2023-12-20T01:38:01;3.10;;;1.50;;
75772;SDS011;64381;0.000;0.000;2023-12-20T01:40:26;3.17;;;1.57;;
75772;SDS011;64381;0.000;0.000;2023-12-20T01:43:01;3.63;;;1.80;;
75772;SDS011;64381;0.000;0.000;2023-12-20T01:45:31;3.08;;;1.60;;
75772;SDS011;64381;0.000;0.000;2023-12-20T01:47:57;3.00;;;1.33;;
75772;SDS011;64381;0.000;0.000;2023-12-20T01:50:23;3.20;;;1.77;;
75772;SDS011;64381;0.000;0.000;2023-12-20T01:52:48;3.37;;;1.57;;
75772;SDS011;64381;0.000;0.000;2023-12-20T01:55:14;3.30;;;1.57;;
75772;SDS011;64381;0.000;0.000;2023-12-20T01:57:40;3.23;;;1.50;;
75772;SDS011;64381;0.000;0.000;2023-12-20T02:00:07;3.72;;;1.50;;
75772;SDS011;64381;0.000;0.000;2023-12-20T02:02:34;3.17;;;1.50;;
75772;SDS011;64381;0.000;0.000;2023-12-20T02:05:04;4.10;;;1.70;;
75772;SDS011;64381;0.000;0.000;2023-12-20T02:07:30;3.50;;;1.50;;
75772;SDS011;64381;0.000;0.000;2023-12-20T02:09:56;3.10;;;1.40;;
75772;SDS011;64381;0.000;0.000;2023-12-20T02:12:21;3.53;;;1.50;;
75772;SDS011;64381;0.000;0.000;2023-12-20T02:14:50;3.33;;;1.40;;
75772;SDS011;64381;0.000;0.000;2023-12-20T02:17:17;3.50;;;1.50;;
75772;SDS011;64381;0.000;0.000;2023-12-20T02:19:43;3.00;;;1.58;;
75772;SDS011;64381;0.000;0.000;2023-12-20T02:22:11;2.90;;;1.40;;
75772;SDS011;64381;0.000;0.000;2023-12-20T02:24:37;4.78;;;1.40;;
75772;SDS011;64381;0.000;0.000;2023-12-20T02:27:07;3.00;;;1.40;;
75772;SDS011;64381;0.000;0.000;2023-12-20T02:29:33;3.45;;;1.38;;
75772;SDS011;64381;0.000;0.000;2023-12-20T02:31:59;2.83;;;1.17;;
75772;SDS011;64381;0.000;0.000;2023-12-20T02:34:25;3.20;;;1.60;;
75772;SDS011;64381;0.000;0.000;2023-12-20T02:36:50;3.20;;;1.47;;
75772;SDS011;64381;0.000;0.000;2023-12-20T02:39:17;3.03;;;1.23;;
75772;SDS011;64381;0.000;0.000;2023-12-20T02:41:43;3.03;;;1.48;;
75772;SDS011;64381;0.000;0.000;2023-12-20T02:44:09;3.10;;;1.23;;
75772;SDS011;64381;0.000;0.000;2023-12-20T02:46:34;3.17;;;1.33;;
75772;SDS011;64381;0.000;0.000;2023-12-20T02:48:59;3.80;;;1.70;;
75772;SDS011;64381;0.000;0.000;2023-12-20T02:51:24;3.50;;;1.43;;
75772;SDS011;64381;0.000;0.000;2023-12-20T02:53:50;3.10;;;1.50;;
75772;SDS011;64381;0.000;0.000;2023-12-20T02:56:15;3.30;;;1.60;;
75772;SDS011;64381;0.000;0.000;2023-12-20T02:58:40;3.10;;;1.40;;
75772;SDS011;64381;0.000;0.000;2023-12-20T03:01:05;3.43;;;1.40;;
75772;SDS011;64381;0.000;0.000;2023-12-20T03:03:31;3.33;;;1.50;;
75772;SDS011;64381;0.000;0.000;2023-12-20T03:05:56;2.90;;;1.40;;
75772;SDS011;64381;0.000;0.000;2023-12-20T03:08:22;2.90;;;1.27;;
75772;SDS011;64381;0.000;0.000;2023-12-20T03:10:47;3.17;;;1.40;;
75772;SDS011;64381;0.000;0.000;2023-12-20T03:13:12;3.10;;;1.40;;
75772;SDS011;64381;0.000;0.000;2023-12-20T03:15:37;4.13;;;1.40;;
75772;SDS011;64381;0.000;0.000;2023-12-20T03:18:02;3.03;;;1.40;;
75772;SDS011;64381;0.000;0.000;2023-12-20T03:20:28;3.10;;;1.37;;
75772;SDS011;64381;0.000;0.000;2023-12-20T03:22:53;2.80;;;1.30;;
75772;SDS011;64381;0.000;0.000;2023-12-20T03:25:18;2.80;;;1.30;;
75772;SDS011;64381;0.000;0.000;2023-12-20T03:27:44;3.00;;;1.30;;
75772;SDS011;64381;0.000;0.000;2023-12-20T03:30:09;3.07;;;1.17;;
75772;SDS011;64381;0.000;0.000;2023-12-20T03:32:34;3.03;;;1.50;;
75772;SDS011;64381;0.000;0.000;2023-12-20T03:35:00;2.90;;;1.30;;
75772;SDS011;64381;0.000;0.000;2023-12-20T03:37:25;3.08;;;1.30;;
75772;SDS011;64381;0.000;0.000;2023-12-20T03:39:50;2.70;;;1.30;;
75772;SDS011;64381;0.000;0.000;2023-12-20T03:42:15;2.70;;;1.25;;
75772;SDS011;64381;0.000;0.000;2023-12-20T03:44:41;2.83;;;1.45;;
75772;SDS011;64381;0.000;0.000;2023-12-20T03:47:06;3.30;;;1.52;;
75772;SDS011;64381;0.000;0.000;2023-12-20T03:49:31;2.90;;;1.50;;
75772;SDS011;64381;0.000;0.000;2023-12-20T03:51:56;3.10;;;1.20;;
75772;SDS011;64381;0.000;0.000;2023-12-20T03:54:22;3.03;;;1.43;;
75772;SDS011;64381;0.000;0.000;2023-12-20T03:56:47;3.40;;;1.47;;
75772;SDS011;64381;0.000;0.000;2023-12-20T03:59:12;3.73;;;1.50;;
75772;SDS011;64381;0.000;0.000;2023-12-20T04:01:37;2.83;;;1.30;;
75772;SDS011;64381;0.000;0.000;2023-12-20T04:04:02;2.80;;;1.30;;
75772;SDS011;64381;0.000;0.000;2023-12-20T04:06:28;2.80;;;1.30;;
75772;SDS011;64381;0.000;0.000;2023-12-20T04:08:53;3.37;;;1.40;;
75772;SDS011;64381;0.000;0.000;2023-12-20T04:11:18;3.10;;;1.30;;
75772;SDS011;64381;0.000;0.000;2023-12-20T04:13:43;2.90;;;1.20;;
75772;SDS011;64381;0.000;0.000;2023-12-20T04:16:09;2.80;;;1.30;;
75772;SDS011;64381;0.000;0.000;2023-12-20T04:18:34;2.90;;;1.33;;
75772;SDS011;64381;0.000;0.000;2023-12-20T04:20:59;2.77;;;1.20;;
75772;SDS011;64381;0.000;0.000;2023-12-20T04:23:24;2.97;;;1.23;;
75772;SDS011;64381;0.000;0.000;2023-12-20T04:25:49;3.07;;;1.40;;
75772;SDS011;64381;0.000;0.000;2023-12-20T04:28:15;2.90;;;1.27;;
75772;SDS011;64381;0.000;0.000;2023-12-20T04:30:40;3.20;;;1.40;;
75772;SDS011;64381;0.000;0.000;2023-12-20T04:33:05;2.93;;;1.23;;
75772;SDS011;64381;0.000;0.000;2023-12-20T04:35:30;2.97;;;1.37;;
75772;SDS011;64381;0.000;0.000;2023-12-20T04:37:55;3.37;;;1.30;;
75772;SDS011;64381;0.000;0.000;2023-12-20T04:40:21;2.77;;;1.17;;
75772;SDS011;64381;0.000;0.000;2023-12-20T04:42:46;2.70;;;1.10;;
75772;SDS011;64381;0.000;0.000;2023-12-20T04:45:11;2.77;;;1.20;;
75772;SDS011;64381;0.000;0.000;2023-12-20T04:47:36;2.87;;;1.20;;
75772;SDS011;64381;0.000;0.000;2023-12-20T04:50:02;3.10;;;1.27;;
75772;SDS011;64381;0.000;0.000;2023-12-20T04:52:27;2.70;;;1.10;;
75772;SDS011;64381;0.000;0.000;2023-12-20T04:54:52;3.00;;;1.20;;
75772;SDS011;64381;0.000;0.000;2023-12-20T04:57:17;2.77;;;1.30;;
75772;SDS011;64381;0.000;0.000;2023-12-20T04:59:43;2.80;;;1.20;;
75772;SDS011;64381;0.000;0.000;2023-12-20T05:02:08;2.90;;;1.40;;
75772;SDS011;64381;0.000;0.000;2023-12-20T05:04:33;2.87;;;1.30;;
75772;SDS011;64381;0.000;0.000;2023-12-20T05:06:58;2.80;;;1.20;;
75772;SDS011;64381;0.000;0.000;2023-12-20T05:09:23;2.97;;;1.20;;
75772;SDS011;64381;0.000;0.000;2023-12-20T05:11:48;3.03;;;1.40;;
75772;SDS011;64381;0.000;0.000;2023-12-20T05:14:14;3.00;;;1.00;;
75772;SDS011;64381;0.000;0.000;2023-12-20T05:16:39;2.80;;;1.20;;
75772;SDS011;64381;0.000;0.000;2023-12-20T05:19:04;2.40;;;1.00;;
75772;SDS011;64381;0.000;0.000;2023-12-20T05:21:29;2.67;;;1.07;;
75772;SDS011;64381;0.000;0.000;2023-12-20T05:23:54;2.70;;;1.17;;
75772;SDS011;64381;0.000;0.000;2023-12-20T05:26:20;2.80;;;1.13;;
75772;SDS011;64381;0.000;0.000;2023-12-20T05:28:45;3.10;;;1.20;;
75772;SDS011;64381;0.000;0.000;2023-12-20T05:31:10;2.80;;;1.20;;
75772;SDS011;64381;0.000;0.000;2023-12-20T05:33:35;2.80;;;1.30;;
75772;SDS011;64381;0.000;0.000;2023-12-20T05:36:00;2.90;;;1.23;;
75772;SDS011;64381;0.000;0.000;2023-12-20T05:38:26;2.90;;;1.40;;
75772;SDS011;64381;0.000;0.000;2023-12-20T05:40:51;2.90;;;1.30;;
75772;SDS011;64381;0.000;0.000;2023-12-20T05:43:16;2.90;;;1.00;;
75772;SDS011;64381;0.000;0.000;2023-12-20T05:45:41;2.67;;;1.20;;
75772;SDS011;64381;0.000;0.000;2023-12-20T05:48:07;3.03;;;1.25;;
75772;SDS011;64381;0.000;0.000;2023-12-20T05:50:32;2.70;;;1.00;;
75772;SDS011;64381;0.000;0.000;2023-12-20T05:52:57;2.70;;;1.10;;
75772;SDS011;64381;0.000;0.000;2023-12-20T05:55:22;3.00;;;1.30;;
75772;SDS011;64381;0.000;0.000;2023-12-20T05:57:48;2.63;;;1.10;;
75772;SDS011;64381;0.000;0.000;2023-12-20T06:00:13;2.70;;;1.17;;
75772;SDS011;64381;0.000;0.000;2023-12-20T06:02:39;2.63;;;1.30;;
75772;SDS011;64381;0.000;0.000;2023-12-20T06:05:04;2.83;;;1.07;;
75772;SDS011;64381;0.000;0.000;2023-12-20T06:07:30;2.95;;;1.30;;
75772;SDS011;64381;0.000;0.000;2023-12-20T06:09:55;3.00;;;1.27;;
75772;SDS011;64381;0.000;0.000;2023-12-20T06:12:20;2.80;;;1.20;;
75772;SDS011;64381;0.000;0.000;2023-12-20T06:14:45;2.50;;;1.00;;
75772;SDS011;64381;0.000;0.000;2023-12-20T06:17:11;2.90;;;1.20;;
75772;SDS011;64381;0.000;0.000;2023-12-20T06:19:36;2.70;;;1.27;;
75772;SDS011;64381;0.000;0.000;2023-12-20T06:22:01;2.77;;;1.10;;
75772;SDS011;64381;0.000;0.000;2023-12-20T06:24:26;2.90;;;1.20;;
75772;SDS011;64381;0.000;0.000;2023-12-20T06:26:51;2.63;;;1.13;;
75772;SDS011;64381;0.000;0.000;2023-12-20T06:29:17;2.40;;;1.10;;
75772;SDS011;64381;0.000;0.000;2023-12-20T06:31:42;2.77;;;1.20;;
75772;SDS011;64381;0.000;0.000;2023-12-20T06:34:07;2.70;;;1.10;;
75772;SDS011;64381;0.000;0.000;2023-12-20T06:36:32;2.70;;;1.10;;
75772;SDS011;64381;0.000;0.000;2023-12-20T06:38:57;2.70;;;1.30;;
75772;SDS011;64381;0.000;0.000;2023-12-20T06:41:23;2.80;;;1.10;;
75772;SDS011;64381;0.000;0.000;2023-12-20T06:43:48;2.70;;;1.10;;
75772;SDS011;64381;0.000;0.000;2023-12-20T06:46:13;2.83;;;1.20;;
75772;SDS011;64381;0.000;0.000;2023-12-20T06:48:39;2.80;;;1.10;;
75772;SDS011;64381;0.000;0.000;2023-12-20T06:51:04;2.67;;;1.00;;
75772;SDS011;64381;0.000;0.000;2023-12-20T06:53:30;2.55;;;1.10;;
75772;SDS011;64381;0.000;0.000;2023-12-20T06:55:55;2.93;;;1.20;;
75772;SDS011;64381;0.000;0.000;2023-12-20T06:58:20;2.80;;;1.10;;
75772;SDS011;64381;0.000;0.000;2023-12-20T07:00:45;2.40;;;0.97;;
75772;SDS011;64381;0.000;0.000;2023-12-20T07:03:11;2.60;;;1.03;;
75772;SDS011;64381;0.000;0.000;2023-12-20T07:05:36;2.70;;;1.10;;
75772;SDS011;64381;0.000;0.000;2023-12-20T07:08:01;2.83;;;1.30;;
75772;SDS011;64381;0.000;0.000;2023-12-20T07:10:26;2.70;;;1.10;;
75772;SDS011;64381;0.000;0.000;2023-12-20T07:12:51;2.70;;;0.93;;
75772;SDS011;64381;0.000;0.000;2023-12-20T07:15:17;2.83;;;1.10;;
75772;SDS011;64381;0.000;0.000;2023-12-20T07:17:42;2.60;;;1.00;;
75772;SDS011;64381;0.000;0.000;2023-12-20T07:20:07;2.50;;;0.90;;
75772;SDS011;64381;0.000;0.000;2023-12-20T07:22:33;2.80;;;1.13;;
75772;SDS011;64381;0.000;0.000;2023-12-20T07:24:59;2.50;;;0.90;;
75772;SDS011;64381;0.000;0.000;2023-12-20T07:27:24;2.53;;;1.10;;
75772;SDS011;64381;0.000;0.000;2023-12-20T07:29:49;2.87;;;1.10;;
75772;SDS011;64381;0.000;0.000;2023-12-20T07:32:15;2.77;;;1.10;;
75772;SDS011;64381;0.000;0.000;2023-12-20T07:34:40;2.60;;;1.10;;
75772;SDS011;64381;0.000;0.000;2023-12-20T07:37:08;2.42;;;1.10;;
75772;SDS011;64381;0.000;0.000;2023-12-20T07:39:33;2.57;;;0.90;;
75772;SDS011;64381;0.000;0.000;2023-12-20T07:41:58;2.70;;;1.00;;
75772;SDS011;64381;0.000;0.000;2023-12-20T07:44:24;2.60;;;1.03;;
75772;SDS011;64381;0.000;0.000;2023-12-20T07:46:49;2.40;;;0.90;;
75772;SDS011;64381;0.000;0.000;2023-12-20T07:49:14;2.87;;;1.20;;
75772;SDS011;64381;0.000;0.000;2023-12-20T07:51:39;2.50;;;1.00;;
75772;SDS011;64381;0.000;0.000;2023-12-20T07:54:04;2.80;;;1.00;;
75772;SDS011;64381;0.000;0.000;2023-12-20T07:56:30;2.50;;;0.97;;
75772;SDS011;64381;0.000;0.000;2023-12-20T07:58:55;2.53;;;0.80;;
75772;SDS011;64381;0.000;0.000;2023-12-20T08:01:20;2.50;;;1.00;;
75772;SDS011;64381;0.000;0.000;2023-12-20T08:03:45;2.60;;;1.00;;
75772;SDS011;64381;0.000;0.000;2023-12-20T08:06:10;2.97;;;0.90;;
75772;SDS011;64381;0.000;0.000;2023-12-20T08:08:36;3.07;;;0.90;;
75772;SDS011;64381;0.000;0.000;2023-12-20T08:11:01;2.30;;;0.90;;
75772;SDS011;64381;0.000;0.000;2023-12-20T08:13:26;2.40;;;1.00;;
75772;SDS011;64381;0.000;0.000;2023-12-20T08:15:52;2.70;;;0.97;;
75772;SDS011;64381;0.000;0.000;2023-12-20T08:18:17;2.50;;;1.00;;
75772;SDS011;64381;0.000;0.000;2023-12-20T08:20:43;2.63;;;0.97;;
75772;SDS011;64381;0.000;0.000;2023-12-20T08:23:08;2.50;;;1.10;;
75772;SDS011;64381;0.000;0.000;2023-12-20T08:25:33;2.37;;;0.90;;
75772;SDS011;64381;0.000;0.000;2023-12-20T08:27:59;2.90;;;1.10;;
75772;SDS011;64381;0.000;0.000;2023-12-20T08:30:24;2.30;;;0.80;;
75772;SDS011;64381;0.000;0.000;2023-12-20T08:32:49;2.20;;;0.77;;
75772;SDS011;64381;0.000;0.000;2023-12-20T08:35:14;2.57;;;0.90;;
75772;SDS011;64381;0.000;0.000;2023-12-20T08:37:39;2.20;;;0.90;;
75772;SDS011;64381;0.000;0.000;2023-12-20T08:40:05;2.30;;;0.80;;
75772;SDS011;64381;0.000;0.000;2023-12-20T08:42:30;2.50;;;1.05;;
75772;SDS011;64381;0.000;0.000;2023-12-20T08:44:56;2.33;;;0.90;;
75772;SDS011;64381;0.000;0.000;2023-12-20T08:47:22;2.83;;;1.20;;
75772;SDS011;64381;0.000;0.000;2023-12-20T08:49:47;2.70;;;1.00;;
75772;SDS011;64381;0.000;0.000;2023-12-20T08:52:12;2.67;;;1.00;;
75772;SDS011;64381;0.000;0.000;2023-12-20T08:54:37;2.30;;;0.90;;
75772;SDS011;64381;0.000;0.000;2023-12-20T08:57:02;2.40;;;0.90;;
75772;SDS011;64381;0.000;0.000;2023-12-20T08:59:28;2.70;;;1.00;;
75772;SDS011;64381;0.000;0.000;2023-12-20T09:01:53;2.50;;;1.00;;
75772;SDS011;64381;0.000;0.000;2023-12-20T09:04:18;2.43;;;1.00;;
75772;SDS011;64381;0.000;0.000;2023-12-20T09:06:43;2.60;;;1.00;;
75772;SDS011;64381;0.000;0.000;2023-12-20T09:09:09;2.40;;;0.90;;
75772;SDS011;64381;0.000;0.000;2023-12-20T09:11:34;2.07;;;0.80;;
75772;SDS011;64381;0.000;0.000;2023-12-20T09:13:59;2.30;;;0.90;;
75772;SDS011;64381;0.000;0.000;2023-12-20T09:16:24;2.40;;;0.97;;
75772;SDS011;64381;0.000;0.000;2023-12-20T09:18:50;2.43;;;0.90;;
75772;SDS011;64381;0.000;0.000;2023-12-20T09:21:15;2.53;;;0.93;;
75772;SDS011;64381;0.000;0.000;2023-12-20T09:23:40;2.33;;;0.80;;
75772;SDS011;64381;0.000;0.000;2023-12-20T09:26:05;2.27;;;0.90;;
75772;SDS011;64381;0.000;0.000;2023-12-20T09:28:30;2.30;;;0.90;;
75772;SDS011;64381;0.000;0.000;2023-12-20T09:30:56;3.13;;;0.97;;
75772;SDS011;64381;0.000;0.000;2023-12-20T09:33:21;2.47;;;0.80;;
75772;SDS011;64381;0.000;0.000;2023-12-20T09:35:46;2.00;;;0.70;;
75772;SDS011;64381;0.000;0.000;2023-12-20T09:38:11;2.50;;;0.90;;
75772;SDS011;64381;0.000;0.000;2023-12-20T09:40:36;2.50;;;0.90;;
75772;SDS011;64381;0.000;0.000;2023-12-20T09:43:15;4.28;;;0.90;;
75772;SDS011;64381;0.000;0.000;2023-12-20T09:45:46;2.50;;;0.82;;
75772;SDS011;64381;0.000;0.000;2023-12-20T09:48:12;2.28;;;0.82;;
75772;SDS011;64381;0.000;0.000;2023-12-20T09:50:38;2.30;;;0.80;;
75772;SDS011;64381;0.000;0.000;2023-12-20T09:53:03;2.30;;;0.80;;
75772;SDS011;64381;0.000;0.000;2023-12-20T09:55:30;2.40;;;0.82;;
75772;SDS011;64381;0.000;0.000;2023-12-20T09:57:56;2.67;;;0.98;;
75772;SDS011;64381;0.000;0.000;2023-12-20T10:00:22;2.37;;;0.90;;
75772;SDS011;64381;0.000;0.000;2023-12-20T10:05:19;2.20;;;0.80;;
75772;SDS011;64381;0.000;0.000;2023-12-20T10:07:51;2.30;;;0.82;;
75772;SDS011;64381;0.000;0.000;2023-12-20T10:10:17;2.10;;;0.70;;
75772;SDS011;64381;0.000;0.000;2023-12-20T10:12:46;1.90;;;0.60;;
75772;SDS011;64381;0.000;0.000;2023-12-20T10:15:33;2.60;;;1.00;;
75772;SDS011;64381;0.000;0.000;2023-12-20T10:17:58;2.60;;;0.93;;
75772;SDS011;64381;0.000;0.000;2023-12-20T10:20:24;2.30;;;0.83;;
75772;SDS011;64381;0.000;0.000;2023-12-20T10:22:49;2.30;;;0.80;;
75772;SDS011;64381;0.000;0.000;2023-12-20T10:25:14;2.30;;;0.80;;
75772;SDS011;64381;0.000;0.000;2023-12-20T10:27:40;2.05;;;0.70;;
75772;SDS011;64381;0.000;0.000;2023-12-20T10:30:05;3.10;;;0.83;;
75772;SDS011;64381;0.000;0.000;2023-12-20T10:32:31;2.20;;;0.80;;
75772;SDS011;64381;0.000;0.000;2023-12-20T10:34:56;2.37;;;0.80;;
75772;SDS011;64381;0.000;0.000;2023-12-20T10:37:21;2.30;;;0.90;;
75772;SDS011;64381;0.000;0.000;2023-12-20T10:39:50;2.50;;;0.90;;
75772;SDS011;64381;0.000;0.000;2023-12-20T10:42:18;2.33;;;0.80;;
75772;SDS011;64381;0.000;0.000;2023-12-20T10:44:46;2.20;;;0.75;;
75772;SDS011;64381;0.000;0.000;2023-12-20T10:47:12;2.40;;;0.80;;
75772;SDS011;64381;0.000;0.000;2023-12-20T10:49:56;2.20;;;0.70;;
75772;SDS011;64381;0.000;0.000;2023-12-20T10:52:24;2.30;;;0.70;;
75772;SDS011;64381;0.000;0.000;2023-12-20T10:54:54;2.30;;;0.80;;
75772;SDS011;64381;0.000;0.000;2023-12-20T10:57:25;2.20;;;0.73;;
75772;SDS011;64381;0.000;0.000;2023-12-20T11:00:15;2.20;;;0.80;;
75772;SDS011;64381;0.000;0.000;2023-12-20T11:02:42;2.42;;;0.90;;
75772;SDS011;64381;0.000;0.000;2023-12-20T11:07:58;2.05;;;0.73;;
75772;SDS011;64381;0.000;0.000;2023-12-20T11:10:39;2.30;;;0.80;;
75772;SDS011;64381;0.000;0.000;2023-12-20T11:13:16;2.40;;;0.70;;
75772;SDS011;64381;0.000;0.000;2023-12-20T11:15:46;2.42;;;0.95;;
75772;SDS011;64381;0.000;0.000;2023-12-20T11:18:11;2.53;;;0.80;;
75772;SDS011;64381;0.000;0.000;2023-12-20T11:20:39;3.33;;;0.80;;
75772;SDS011;64381;0.000;0.000;2023-12-20T11:23:05;2.28;;;0.85;;
75772;SDS011;64381;0.000;0.000;2023-12-20T11:25:45;2.92;;;0.77;;
75772;SDS011;64381;0.000;0.000;2023-12-20T11:28:11;2.30;;;0.80;;
75772;SDS011;64381;0.000;0.000;2023-12-20T11:30:40;2.70;;;0.88;;
75772;SDS011;64381;0.000;0.000;2023-12-20T11:33:22;2.10;;;0.80;;
75772;SDS011;64381;0.000;0.000;2023-12-20T11:35:49;2.78;;;0.90;;
75772;SDS011;64381;0.000;0.000;2023-12-20T11:38:14;2.50;;;0.90;;
75772;SDS011;64381;0.000;0.000;2023-12-20T11:40:40;2.80;;;0.93;;
75772;SDS011;64381;0.000;0.000;2023-12-20T11:43:07;2.13;;;0.70;;
75772;SDS011;64381;0.000;0.000;2023-12-20T11:45:32;2.37;;;0.80;;
75772;SDS011;64381;0.000;0.000;2023-12-20T11:47:58;2.30;;;0.80;;
75772;SDS011;64381;0.000;0.000;2023-12-20T11:50:23;2.50;;;0.80;;
75772;SDS011;64381;0.000;0.000;2023-12-20T11:52:49;2.38;;;0.70;;
75772;SDS011;64381;0.000;0.000;2023-12-20T11:55:17;4.70;;;1.40;;
75772;SDS011;64381;0.000;0.000;2023-12-20T11:57:42;2.45;;;0.80;;
75772;SDS011;64381;0.000;0.000;2023-12-20T12:00:08;3.03;;;0.90;;
75772;SDS011;64381;0.000;0.000;2023-12-20T12:02:33;3.08;;;0.90;;
75772;SDS011;64381;0.000;0.000;2023-12-20T12:04:59;2.30;;;0.82;;
75772;SDS011;64381;0.000;0.000;2023-12-20T12:07:25;2.50;;;0.90;;
75772;SDS011;64381;0.000;0.000;2023-12-20T12:09:50;2.60;;;0.93;;
75772;SDS011;64381;0.000;0.000;2023-12-20T12:12:16;2.50;;;0.70;;
75772;SDS011;64381;0.000;0.000;2023-12-20T12:14:42;2.50;;;0.83;;
75772;SDS011;64381;0.000;0.000;2023-12-20T12:17:13;3.03;;;1.10;;
75772;SDS011;64381;0.000;0.000;2023-12-20T12:19:39;4.15;;;1.25;;
75772;SDS011;64381;0.000;0.000;2023-12-20T12:22:09;3.20;;;1.20;;
75772;SDS011;64381;0.000;0.000;2023-12-20T12:24:39;4.47;;;1.27;;
75772;SDS011;64381;0.000;0.000;2023-12-20T12:27:12;5.25;;;2.00;;
75772;SDS011;64381;0.000;0.000;2023-12-20T12:29:40;4.43;;;1.60;;
75772;SDS011;64381;0.000;0.000;2023-12-20T12:32:08;5.63;;;1.88;;
75772;SDS011;64381;0.000;0.000;2023-12-20T12:34:34;4.47;;;2.13;;
75772;SDS011;64381;0.000;0.000;2023-12-20T12:37:00;5.43;;;1.55;;
75772;SDS011;64381;0.000;0.000;2023-12-20T12:39:26;4.72;;;1.83;;
75772;SDS011;64381;0.000;0.000;2023-12-20T12:41:52;7.30;;;2.37;;
75772;SDS011;64381;0.000;0.000;2023-12-20T12:44:20;8.38;;;2.50;;
75772;SDS011;64381;0.000;0.000;2023-12-20T12:46:46;7.57;;;2.50;;
75772;SDS011;64381;0.000;0.000;2023-12-20T12:49:12;6.57;;;2.43;;
75772;SDS011;64381;0.000;0.000;2023-12-20T12:51:38;5.55;;;2.30;;
75772;SDS011;64381;0.000;0.000;2023-12-20T12:54:03;6.28;;;2.58;;
75772;SDS011;64381;0.000;0.000;2023-12-20T12:56:29;6.10;;;2.27;;
75772;SDS011;64381;0.000;0.000;2023-12-20T12:58:54;8.23;;;2.50;;
75772;SDS011;64381;0.000;0.000;2023-12-20T13:01:20;5.57;;;1.90;;
75772;SDS011;64381;0.000;0.000;2023-12-20T13:03:45;6.15;;;2.40;;
75772;SDS011;64381;0.000;0.000;2023-12-20T13:06:10;6.20;;;2.00;;
75772;SDS011;64381;0.000;0.000;2023-12-20T13:08:36;6.93;;;2.37;;
75772;SDS011;64381;0.000;0.000;2023-12-20T13:11:01;6.90;;;2.20;;
75772;SDS011;64381;0.000;0.000;2023-12-20T13:13:26;5.57;;;2.13;;
75772;SDS011;64381;0.000;0.000;2023-12-20T13:15:52;5.10;;;2.10;;
75772;SDS011;64381;0.000;0.000;2023-12-20T13:18:17;6.70;;;2.00;;
75772;SDS011;64381;0.000;0.000;2023-12-20T13:20:42;5.00;;;2.00;;
75772;SDS011;64381;0.000;0.000;2023-12-20T13:23:08;4.70;;;2.10;;
75772;SDS011;64381;0.000;0.000;2023-12-20T13:25:33;4.60;;;1.80;;
75772;SDS011;64381;0.000;0.000;2023-12-20T13:27:59;5.78;;;2.25;;
75772;SDS011;64381;0.000;0.000;2023-12-20T13:30:24;5.73;;;2.37;;
75772;SDS011;64381;0.000;0.000;2023-12-20T13:32:50;6.43;;;2.53;;
75772;SDS011;64381;0.000;0.000;2023-12-20T13:35:15;5.67;;;2.00;;
75772;SDS011;64381;0.000;0.000;2023-12-20T13:37:40;6.40;;;2.10;;
75772;SDS011;64381;0.000;0.000;2023-12-20T13:40:05;5.93;;;2.30;;
75772;SDS011;64381;0.000;0.000;2023-12-20T13:42:31;5.63;;;1.85;;
75772;SDS011;64381;0.000;0.000;2023-12-20T13:44:56;6.17;;;2.10;;
75772;SDS011;64381;0.000;0.000;2023-12-20T13:47:21;4.97;;;2.00;;
75772;SDS011;64381;0.000;0.000;2023-12-20T13:49:47;5.10;;;1.80;;
75772;SDS011;64381;0.000;0.000;2023-12-20T13:52:12;5.53;;;1.80;;
75772;SDS011;64381;0.000;0.000;2023-12-20T13:54:37;6.77;;;2.20;;
75772;SDS011;64381;0.000;0.000;2023-12-20T13:57:03;5.40;;;2.10;;
75772;SDS011;64381;0.000;0.000;2023-12-20T13:59:28;4.90;;;2.00;;
75772;SDS011;64381;0.000;0.000;2023-12-20T14:01:53;5.40;;;2.00;;
75772;SDS011;64381;0.000;0.000;2023-12-20T14:04:19;5.60;;;2.00;;
75772;SDS011;64381;0.000;0.000;2023-12-20T14:06:45;5.93;;;2.22;;
75772;SDS011;64381;0.000;0.000;2023-12-20T14:09:10;5.03;;;1.97;;
75772;SDS011;64381;0.000;0.000;2023-12-20T14:11:35;5.43;;;2.10;;
75772;SDS011;64381;0.000;0.000;2023-12-20T14:14:00;6.13;;;1.80;;
75772;SDS011;64381;0.000;0.000;2023-12-20T14:16:26;5.23;;;1.80;;
75772;SDS011;64381;0.000;0.000;2023-12-20T14:18:51;4.73;;;1.90;;
75772;SDS011;64381;0.000;0.000;2023-12-20T14:21:16;4.77;;;2.03;;
75772;SDS011;64381;0.000;0.000;2023-12-20T14:23:41;4.97;;;1.83;;
75772;SDS011;64381;0.000;0.000;2023-12-20T14:26:06;3.80;;;1.90;;
75772;SDS011;64381;0.000;0.000;2023-12-20T14:28:32;4.17;;;1.87;;
75772;SDS011;64381;0.000;0.000;2023-12-20T14:30:57;6.00;;;2.00;;
75772;SDS011;64381;0.000;0.000;2023-12-20T14:33:22;6.27;;;2.10;;
75772;SDS011;64381;0.000;0.000;2023-12-20T14:35:47;5.00;;;2.07;;
75772;SDS011;64381;0.000;0.000;2023-12-20T14:38:12;6.07;;;1.93;;
75772;SDS011;64381;0.000;0.000;2023-12-20T14:40:38;4.07;;;1.70;;
75772;SDS011;64381;0.000;0.000;2023-12-20T14:43:03;4.23;;;1.67;;
75772;SDS011;64381;0.000;0.000;2023-12-20T14:45:28;4.63;;;1.55;;
75772;SDS011;64381;0.000;0.000;2023-12-20T14:47:53;5.05;;;1.83;;
75772;SDS011;64381;0.000;0.000;2023-12-20T14:50:19;4.03;;;1.75;;
75772;SDS011;64381;0.000;0.000;2023-12-20T14:52:44;4.55;;;1.50;;
75772;SDS011;64381;0.000;0.000;2023-12-20T14:55:09;4.38;;;1.60;;
75772;SDS011;64381;0.000;0.000;2023-12-20T14:57:35;3.97;;;1.70;;